Time;durP1;ratioP1;P1;durP2;ratioP2;P2;SDS_P1;SDS_P2;PMS_P1;PMS_P2;Temp;Humidity;BMP_temperature;BMP_pressure;BME280_temperature;BME280_humidity;BME280_pressure;Samples;Min_cycle;Max_cycle;Signal;HPM_P1;HPM_P2
2023/07/27 00:00:20;;;;;;;4.97;4.47;;;;;;;;;;5037931;28;20238;-81
2023/07/27 00:02:46;;;;;;;5.50;4.50;;;;;;;;;;5054490;28;20279;-81
2023/07/27 00:05:15;;;;;;;6.03;4.10;;;;;;;;;;5054407;28;20172;-81
2023/07/27 00:07:41;;;;;;;5.00;4.40;;;;;;;;;;5054557;28;20179;-81
2023/07/27 00:10:09;;;;;;;5.00;4.23;;;;;;;;;;5054351;28;20204;-81
2023/07/27 00:12:38;;;;;;;5.63;4.07;;;;;;;;;;5054090;28;20227;-81
2023/07/27 00:15:04;;;;;;;7.10;4.37;;;;;;;;;;5054506;28;20237;-81
2023/07/27 00:17:30;;;;;;;5.93;4.10;;;;;;;;;;5037764;28;20279;-81
2023/07/27 00:19:58;;;;;;;5.93;4.30;;;;;;;;;;5054363;28;20187;-81
2023/07/27 00:22:24;;;;;;;4.80;4.27;;;;;;;;;;5054002;28;20241;-81
2023/07/27 00:24:50;;;;;;;5.27;4.20;;;;;;;;;;5037576;28;20192;-81
2023/07/27 00:27:16;;;;;;;7.33;4.17;;;;;;;;;;5037147;28;20203;-81
2023/07/27 00:29:42;;;;;;;6.17;4.60;;;;;;;;;;5036868;28;20231;-81
2023/07/27 00:32:08;;;;;;;7.57;4.47;;;;;;;;;;5053992;28;20187;-81
2023/07/27 00:34:34;;;;;;;6.33;4.57;;;;;;;;;;5053884;28;20180;-81
2023/07/27 00:37:03;;;;;;;6.10;4.43;;;;;;;;;;5037395;28;20215;-81
2023/07/27 00:39:29;;;;;;;5.63;4.30;;;;;;;;;;5053576;28;20180;-81
2023/07/27 00:41:55;;;;;;;5.47;4.60;;;;;;;;;;5037244;28;20188;-81
2023/07/27 00:44:21;;;;;;;4.70;4.13;;;;;;;;;;5036874;28;20279;-81
2023/07/27 00:46:47;;;;;;;8.00;4.73;;;;;;;;;;5053453;28;20215;-81
2023/07/27 00:49:13;;;;;;;6.17;4.53;;;;;;;;;;5053586;28;20215;-81
2023/07/27 00:51:46;;;;;;;6.20;4.77;;;;;;;;;;5053539;28;20271;-81
2023/07/27 00:54:12;;;;;;;5.33;4.33;;;;;;;;;;5053700;28;20176;-81
2023/07/27 00:56:39;;;;;;;5.40;4.67;;;;;;;;;;5036740;28;20175;-81
2023/07/27 00:59:05;;;;;;;6.63;5.00;;;;;;;;;;5053404;28;20251;-81
2023/07/27 01:01:31;;;;;;;7.67;5.30;;;;;;;;;;5053455;28;20175;-81
2023/07/27 01:03:58;;;;;;;9.23;5.60;;;;;;;;;;5053227;28;20184;-81
2023/07/27 01:06:25;;;;;;;7.97;6.20;;;;;;;;;;5052982;28;20275;-81
2023/07/27 01:08:51;;;;;;;7.33;5.70;;;;;;;;;;5053282;28;20206;-81
2023/07/27 01:11:21;;;;;;;9.57;6.60;;;;;;;;;;5052971;28;20318;-81
2023/07/27 01:13:47;;;;;;;9.63;5.77;;;;;;;;;;5053070;28;20234;-81
2023/07/27 01:16:16;;;;;;;7.33;5.90;;;;;;;;;;5052825;28;20271;-81
2023/07/27 01:18:45;;;;;;;8.10;6.53;;;;;;;;;;5052999;28;20325;-81
2023/07/27 01:21:16;;;;;;;7.83;6.60;;;;;;;;;;5052935;28;20205;-81
2023/07/27 01:23:48;;;;;;;8.90;6.43;;;;;;;;;;5052624;28;20219;-81
2023/07/27 01:26:14;;;;;;;8.03;6.47;;;;;;;;;;5052876;28;20214;-81
2023/07/27 01:28:40;;;;;;;11.47;7.07;;;;;;;;;;5052823;28;20199;-81
2023/07/27 01:31:13;;;;;;;9.63;6.67;;;;;;;;;;5052694;28;20242;-80
2023/07/27 01:33:41;;;;;;;8.23;6.83;;;;;;;;;;5052821;28;20174;-81
2023/07/27 01:36:09;;;;;;;7.37;6.57;;;;;;;;;;5052829;28;20172;-81
2023/07/27 01:38:40;;;;;;;11.00;7.37;;;;;;;;;;5052663;28;20214;-81
2023/07/27 01:41:09;;;;;;;8.90;8.00;;;;;;;;;;5051940;28;20176;-81
2023/07/27 01:43:36;;;;;;;9.37;7.93;;;;;;;;;;5052595;28;20184;-81
2023/07/27 01:46:03;;;;;;;10.70;8.10;;;;;;;;;;5035885;28;20180;-81
2023/07/27 01:48:32;;;;;;;11.27;8.53;;;;;;;;;;5036198;28;20180;-81
2023/07/27 01:50:58;;;;;;;9.37;7.93;;;;;;;;;;5052235;28;20211;-81
2023/07/27 01:53:25;;;;;;;9.87;8.73;;;;;;;;;;5036262;28;20192;-81
2023/07/27 01:55:52;;;;;;;9.97;8.40;;;;;;;;;;5052811;28;20180;-81
2023/07/27 01:58:18;;;;;;;12.90;9.53;;;;;;;;;;5052710;28;20184;-81
2023/07/27 02:00:44;;;;;;;12.93;9.17;;;;;;;;;;5052515;28;20175;-81
2023/07/27 02:03:10;;;;;;;10.97;9.00;;;;;;;;;;5052532;28;20180;-81
2023/07/27 02:05:39;;;;;;;12.43;8.93;;;;;;;;;;5052215;28;20191;-81
2023/07/27 02:08:05;;;;;;;10.03;9.00;;;;;;;;;;5052382;28;20199;-81
2023/07/27 02:10:31;;;;;;;12.43;10.13;;;;;;;;;;5052527;28;20207;-81
2023/07/27 02:13:13;;;;;;;12.07;9.20;;;;;;;;;;5052353;28;20224;-86
2023/07/27 02:15:47;;;;;;;11.80;9.97;;;;;;;;;;5052669;28;20176;-86
2023/07/27 02:18:18;;;;;;;11.03;9.67;;;;;;;;;;5052678;28;20175;-86
2023/07/27 02:20:45;;;;;;;11.90;9.47;;;;;;;;;;5052506;28;20263;-86
2023/07/27 02:23:12;;;;;;;10.30;8.97;;;;;;;;;;5052711;28;20188;-86
2023/07/27 02:25:38;;;;;;;13.10;9.00;;;;;;;;;;5052502;28;20212;-86
2023/07/27 02:28:04;;;;;;;12.60;10.00;;;;;;;;;;5052291;28;20200;-86
2023/07/27 02:30:30;;;;;;;14.03;10.40;;;;;;;;;;5052050;28;20207;-87
2023/07/27 02:32:56;;;;;;;13.30;10.87;;;;;;;;;;5052254;28;20176;-86
2023/07/27 02:35:22;;;;;;;14.80;11.27;;;;;;;;;;5036031;28;20208;-86
2023/07/27 02:37:48;;;;;;;12.93;11.50;;;;;;;;;;5052217;28;20180;-86
2023/07/27 02:40:21;;;;;;;15.00;12.10;;;;;;;;;;5036118;28;20237;-86
2023/07/27 02:42:47;;;;;;;15.47;11.83;;;;;;;;;;5036823;28;20188;-86
2023/07/27 02:45:16;;;;;;;14.20;12.20;;;;;;;;;;5052236;28;20226;-86
2023/07/27 02:47:42;;;;;;;18.00;13.10;;;;;;;;;;5052347;28;20172;-86
2023/07/27 02:50:08;;;;;;;19.53;13.20;;;;;;;;;;5035746;28;20279;-86
2023/07/27 02:52:34;;;;;;;16.67;12.60;;;;;;;;;;5038812;28;20243;-85
2023/07/27 02:55:00;;;;;;;16.30;13.30;;;;;;;;;;5039367;28;20290;-86
2023/07/27 02:57:27;;;;;;;16.23;13.57;;;;;;;;;;5039355;28;20180;-86
2023/07/27 02:59:54;;;;;;;18.03;14.30;;;;;;;;;;5055763;28;20175;-86
2023/07/27 03:02:20;;;;;;;16.47;13.90;;;;;;;;;;5039242;28;20213;-86
2023/07/27 03:04:46;;;;;;;17.50;14.77;;;;;;;;;;5039319;28;20213;-86
2023/07/27 03:07:12;;;;;;;18.40;15.23;;;;;;;;;;5056012;28;20180;-86
2023/07/27 03:09:38;;;;;;;20.97;15.47;;;;;;;;;;5055648;28;20212;-86
2023/07/27 03:12:04;;;;;;;19.40;16.13;;;;;;;;;;5039299;28;20231;-86
2023/07/27 03:14:30;;;;;;;18.03;15.47;;;;;;;;;;5039118;28;20218;-85
2023/07/27 03:16:56;;;;;;;21.30;16.60;;;;;;;;;;5055533;28;20179;-85
2023/07/27 03:19:22;;;;;;;21.90;16.23;;;;;;;;;;5055344;28;20230;-85
2023/07/27 03:21:48;;;;;;;22.33;17.07;;;;;;;;;;5055413;28;20206;-86
2023/07/27 03:24:16;;;;;;;21.40;17.80;;;;;;;;;;5055560;28;20206;-85
2023/07/27 03:26:43;;;;;;;22.73;17.93;;;;;;;;;;5055259;28;20214;-85
2023/07/27 03:29:09;;;;;;;25.50;18.47;;;;;;;;;;5055275;28;20204;-85
2023/07/27 03:31:35;;;;;;;24.60;18.50;;;;;;;;;;5038869;28;20184;-85
2023/07/27 03:34:04;;;;;;;23.37;18.77;;;;;;;;;;5055331;28;20218;-85
2023/07/27 03:36:30;;;;;;;22.67;18.73;;;;;;;;;;5054992;28;20191;-85
2023/07/27 03:38:56;;;;;;;23.53;18.17;;;;;;;;;;5055091;28;20211;-85
2023/07/27 03:41:22;;;;;;;22.73;18.70;;;;;;;;;;5054847;28;20187;-85
2023/07/27 03:43:48;;;;;;;25.90;19.67;;;;;;;;;;5038814;28;20191;-85
2023/07/27 03:46:14;;;;;;;25.97;19.77;;;;;;;;;;5038382;28;20249;-85
2023/07/27 03:48:40;;;;;;;21.77;18.87;;;;;;;;;;5054903;28;20183;-85
2023/07/27 03:51:06;;;;;;;27.67;20.07;;;;;;;;;;5054902;28;20200;-85
2023/07/27 03:53:32;;;;;;;28.57;21.03;;;;;;;;;;5038286;28;20208;-85
2023/07/27 03:56:01;;;;;;;27.23;20.23;;;;;;;;;;5054470;28;20226;-85
2023/07/27 03:58:27;;;;;;;26.53;20.27;;;;;;;;;;5054644;28;20172;-85
2023/07/27 04:00:53;;;;;;;24.27;20.57;;;;;;;;;;5054681;28;20188;-85
2023/07/27 04:03:19;;;;;;;29.97;22.57;;;;;;;;;;5053547;28;20191;-85
2023/07/27 04:05:45;;;;;;;24.93;21.90;;;;;;;;;;5054561;28;20180;-84
2023/07/27 04:08:11;;;;;;;30.30;23.37;;;;;;;;;;5037769;28;20187;-85
2023/07/27 04:10:40;;;;;;;29.43;23.20;;;;;;;;;;5037816;28;20306;-85
2023/07/27 04:13:06;;;;;;;28.87;22.27;;;;;;;;;;5038234;28;20227;-84
2023/07/27 04:15:32;;;;;;;22.93;20.33;;;;;;;;;;5054291;28;20263;-84
2023/07/27 04:17:58;;;;;;;27.07;19.80;;;;;;;;;;5037617;28;20219;-84
2023/07/27 04:20:25;;;;;;;25.57;19.50;;;;;;;;;;5037827;28;20188;-84
2023/07/27 04:22:51;;;;;;;26.17;19.87;;;;;;;;;;5054093;28;20186;-84
2023/07/27 04:25:17;;;;;;;24.67;20.30;;;;;;;;;;5037433;28;20183;-84
2023/07/27 04:27:43;;;;;;;25.13;20.47;;;;;;;;;;5037337;28;20207;-85
2023/07/27 04:30:12;;;;;;;23.73;18.03;;;;;;;;;;5037500;28;20308;-85
2023/07/27 04:32:38;;;;;;;22.33;17.47;;;;;;;;;;5038052;28;20177;-85
2023/07/27 04:35:06;;;;;;;24.83;18.60;;;;;;;;;;5054059;28;20179;-84
2023/07/27 04:37:32;;;;;;;24.57;18.03;;;;;;;;;;5037686;28;20180;-85
2023/07/27 04:39:58;;;;;;;23.73;18.17;;;;;;;;;;5054125;28;20175;-85
2023/07/27 04:42:24;;;;;;;24.47;18.27;;;;;;;;;;5037416;28;20282;-85
2023/07/27 04:44:50;;;;;;;21.60;16.60;;;;;;;;;;5037433;28;20269;-85
2023/07/27 04:47:19;;;;;;;18.87;15.67;;;;;;;;;;5053614;28;20186;-85
2023/07/27 04:49:46;;;;;;;19.70;15.53;;;;;;;;;;5053541;28;20206;-85
2023/07/27 04:52:12;;;;;;;20.67;14.57;;;;;;;;;;5053467;28;20200;-85
2023/07/27 04:54:38;;;;;;;17.43;13.77;;;;;;;;;;5053572;28;20171;-84
2023/07/27 04:57:04;;;;;;;15.90;13.87;;;;;;;;;;5037212;28;20274;-84
2023/07/27 04:59:30;;;;;;;18.50;13.93;;;;;;;;;;5036922;28;20231;-84
2023/07/27 05:01:56;;;;;;;17.50;13.53;;;;;;;;;;5037026;28;20281;-84
2023/07/27 05:04:22;;;;;;;16.20;13.50;;;;;;;;;;5053322;28;20179;-84
2023/07/27 05:06:48;;;;;;;18.03;14.43;;;;;;;;;;5053181;28;20245;-85
2023/07/27 05:09:14;;;;;;;18.63;14.33;;;;;;;;;;5036633;28;20183;-81
2023/07/27 05:11:40;;;;;;;15.67;13.93;;;;;;;;;;5053290;28;20185;-81
2023/07/27 05:14:06;;;;;;;17.83;13.97;;;;;;;;;;5036158;28;20216;-81
2023/07/27 05:16:33;;;;;;;16.87;14.20;;;;;;;;;;5053165;28;20180;-85
2023/07/27 05:18:59;;;;;;;21.53;15.70;;;;;;;;;;5036876;28;20293;-84
2023/07/27 05:21:25;;;;;;;18.30;14.10;;;;;;;;;;5053008;28;20177;-85
2023/07/27 05:23:51;;;;;;;17.77;13.30;;;;;;;;;;5036530;28;20187;-84
2023/07/27 05:26:17;;;;;;;15.87;13.10;;;;;;;;;;5052981;28;20274;-84
2023/07/27 05:28:45;;;;;;;12.03;10.77;;;;;;;;;;5053027;28;20200;-85
2023/07/27 05:31:11;;;;;;;14.83;11.07;;;;;;;;;;5053021;28;20265;-84
2023/07/27 05:33:37;;;;;;;14.37;11.03;;;;;;;;;;5052746;28;20176;-84
2023/07/27 05:36:06;;;;;;;14.73;10.63;;;;;;;;;;5036397;28;20195;-85
2023/07/27 05:38:32;;;;;;;14.43;10.47;;;;;;;;;;5052740;28;20180;-84
2023/07/27 05:41:00;;;;;;;14.60;10.67;;;;;;;;;;5052957;28;20191;-84
2023/07/27 05:43:28;;;;;;;12.70;9.53;;;;;;;;;;5036312;28;20179;-85
2023/07/27 05:45:54;;;;;;;12.90;9.90;;;;;;;;;;5036263;28;20187;-84
2023/07/27 05:48:20;;;;;;;13.03;10.23;;;;;;;;;;5052938;28;20199;-84
2023/07/27 05:50:46;;;;;;;12.93;9.80;;;;;;;;;;5036333;28;20220;-85
2023/07/27 05:53:12;;;;;;;12.60;10.33;;;;;;;;;;5036202;28;20184;-85
2023/07/27 05:55:38;;;;;;;13.03;9.77;;;;;;;;;;5053036;28;20186;-84
2023/07/27 05:58:04;;;;;;;12.27;9.73;;;;;;;;;;5052753;28;20258;-84
2023/07/27 06:00:31;;;;;;;11.43;10.23;;;;;;;;;;5036204;28;20230;-85
2023/07/27 06:02:57;;;;;;;11.70;9.23;;;;;;;;;;5052872;28;20180;-84
2023/07/27 06:05:23;;;;;;;14.97;9.97;;;;;;;;;;5036000;28;20184;-84
2023/07/27 06:07:49;;;;;;;10.70;9.60;;;;;;;;;;5052763;28;20330;-84
2023/07/27 06:10:15;;;;;;;11.00;9.33;;;;;;;;;;5036253;28;20219;-84
2023/07/27 06:12:41;;;;;;;10.53;9.43;;;;;;;;;;5036323;28;20222;-84
2023/07/27 06:15:08;;;;;;;10.57;9.20;;;;;;;;;;5036204;28;20176;-84
2023/07/27 06:17:34;;;;;;;12.00;9.43;;;;;;;;;;5052634;28;20184;-84
2023/07/27 06:20:00;;;;;;;12.63;9.90;;;;;;;;;;5052843;28;20191;-84
2023/07/27 06:22:26;;;;;;;14.23;10.30;;;;;;;;;;5035931;28;20222;-83
2023/07/27 06:24:52;;;;;;;9.97;8.87;;;;;;;;;;5036231;28;20187;-84
2023/07/27 06:27:18;;;;;;;11.47;9.60;;;;;;;;;;5055071;28;20287;-84
2023/07/27 06:29:45;;;;;;;12.10;9.50;;;;;;;;;;5056323;28;20219;-84
2023/07/27 06:32:11;;;;;;;10.67;8.73;;;;;;;;;;5039746;28;20210;-84
2023/07/27 06:34:37;;;;;;;8.83;7.60;;;;;;;;;;5056297;28;20172;-84
2023/07/27 06:37:03;;;;;;;8.93;8.03;;;;;;;;;;5056092;28;20180;-84
2023/07/27 06:39:29;;;;;;;9.03;7.23;;;;;;;;;;5056290;28;20191;-84
2023/07/27 06:41:55;;;;;;;7.47;6.70;;;;;;;;;;5039434;28;20183;-84
2023/07/27 06:44:21;;;;;;;7.40;6.43;;;;;;;;;;5055879;28;20200;-84
2023/07/27 06:46:47;;;;;;;7.10;6.40;;;;;;;;;;5039362;28;20184;-84
2023/07/27 06:49:13;;;;;;;8.13;5.77;;;;;;;;;;5055846;28;20274;-83
2023/07/27 06:51:39;;;;;;;6.60;5.90;;;;;;;;;;5039628;28;20190;-84
2023/07/27 06:54:06;;;;;;;5.80;5.23;;;;;;;;;;5039367;28;20184;-84
2023/07/27 06:56:32;;;;;;;5.50;5.00;;;;;;;;;;5055849;28;20183;-84
2023/07/27 06:58:58;;;;;;;6.13;4.87;;;;;;;;;;5055687;28;20211;-84
2023/07/27 07:01:24;;;;;;;5.90;4.70;;;;;;;;;;5055718;28;20191;-84
2023/07/27 07:03:50;;;;;;;7.00;5.30;;;;;;;;;;5055606;28;20179;-84
2023/07/27 07:06:17;;;;;;;5.23;4.53;;;;;;;;;;5039259;28;20183;-84
2023/07/27 07:08:43;;;;;;;7.80;4.60;;;;;;;;;;5055503;28;20191;-84
2023/07/27 07:11:09;;;;;;;5.37;4.83;;;;;;;;;;5055620;28;20207;-84
2023/07/27 07:13:35;;;;;;;5.20;4.70;;;;;;;;;;5038753;28;20227;-84
2023/07/27 07:16:01;;;;;;;4.63;4.23;;;;;;;;;;5038645;28;20176;-84
2023/07/27 07:18:27;;;;;;;4.30;4.00;;;;;;;;;;5055471;28;20184;-83
2023/07/27 07:20:53;;;;;;;5.77;4.40;;;;;;;;;;5038713;28;20225;-83
2023/07/27 07:23:19;;;;;;;4.00;3.60;;;;;;;;;;5055081;28;20190;-84
2023/07/27 07:25:45;;;;;;;4.23;3.83;;;;;;;;;;5055181;28;20275;-84
2023/07/27 07:28:14;;;;;;;4.17;3.77;;;;;;;;;;5038578;28;20239;-84
2023/07/27 07:30:41;;;;;;;4.17;3.77;;;;;;;;;;5055035;28;20303;-84
2023/07/27 07:33:07;;;;;;;4.63;3.33;;;;;;;;;;5038844;28;20187;-84
2023/07/27 07:35:38;;;;;;;4.10;3.70;;;;;;;;;;5055065;28;20179;-84
2023/07/27 07:38:05;;;;;;;3.50;3.20;;;;;;;;;;5054789;28;20180;-84
2023/07/27 07:40:34;;;;;;;3.83;3.53;;;;;;;;;;5054812;28;20176;-84
2023/07/27 07:43:00;;;;;;;4.70;3.33;;;;;;;;;;5054849;28;20262;-84
2023/07/27 07:45:26;;;;;;;3.47;3.27;;;;;;;;;;5054987;28;20234;-84
2023/07/27 07:47:52;;;;;;;3.63;3.33;;;;;;;;;;5054948;28;20191;-84
2023/07/27 07:50:18;;;;;;;3.73;3.43;;;;;;;;;;5038112;28;20230;-84
2023/07/27 07:52:45;;;;;;;3.90;3.60;;;;;;;;;;5038225;28;20176;-85
2023/07/27 07:55:11;;;;;;;5.23;3.73;;;;;;;;;;5054626;28;20176;-84
2023/07/27 07:57:37;;;;;;;4.07;3.73;;;;;;;;;;5037934;28;20175;-85
2023/07/27 08:00:05;;;;;;;5.23;3.90;;;;;;;;;;5054850;28;20218;-85
2023/07/27 08:02:32;;;;;;;4.10;3.70;;;;;;;;;;5054510;28;20237;-85
2023/07/27 08:04:59;;;;;;;3.93;3.63;;;;;;;;;;5037957;28;20227;-85
2023/07/27 08:07:26;;;;;;;4.43;3.60;;;;;;;;;;5038111;28;20184;-85
2023/07/27 08:09:52;;;;;;;4.10;3.60;;;;;;;;;;5054407;28;20239;-84
2023/07/27 08:12:18;;;;;;;4.03;3.63;;;;;;;;;;5054133;28;20319;-85
2023/07/27 08:14:44;;;;;;;3.70;3.40;;;;;;;;;;5054641;28;20187;-85
2023/07/27 08:17:10;;;;;;;4.90;3.30;;;;;;;;;;5054225;28;20205;-85
2023/07/27 08:19:36;;;;;;;3.53;3.13;;;;;;;;;;5054272;28;20180;-85
2023/07/27 08:22:02;;;;;;;3.77;3.47;;;;;;;;;;5054079;28;20184;-85
2023/07/27 08:24:28;;;;;;;3.63;3.33;;;;;;;;;;5053984;28;20184;-85
2023/07/27 08:26:57;;;;;;;3.57;3.33;;;;;;;;;;5054036;28;20227;-86
2023/07/27 08:29:23;;;;;;;5.33;3.30;;;;;;;;;;5054010;28;20275;-85
2023/07/27 08:31:49;;;;;;;3.67;3.37;;;;;;;;;;5054016;28;20187;-85
2023/07/27 08:34:15;;;;;;;4.03;3.37;;;;;;;;;;5053776;28;20171;-85
2023/07/27 08:36:47;;;;;;;3.50;3.20;;;;;;;;;;5054035;28;20275;-85
2023/07/27 08:39:13;;;;;;;3.50;3.20;;;;;;;;;;5053833;28;20207;-85
2023/07/27 08:41:39;;;;;;;3.33;3.10;;;;;;;;;;5054031;28;20249;-86
2023/07/27 08:44:06;;;;;;;3.30;3.10;;;;;;;;;;5053897;28;20229;-85
2023/07/27 08:46:33;;;;;;;3.67;3.43;;;;;;;;;;5053888;28;20176;-85
2023/07/27 08:48:59;;;;;;;4.10;3.50;;;;;;;;;;5053083;28;20176;-85
2023/07/27 08:51:25;;;;;;;4.10;3.70;;;;;;;;;;5037286;28;20207;-85
2023/07/27 08:53:52;;;;;;;3.83;3.53;;;;;;;;;;5053375;28;20202;-86
2023/07/27 08:56:18;;;;;;;3.80;3.50;;;;;;;;;;5053545;28;20195;-85
2023/07/27 08:58:44;;;;;;;3.80;3.47;;;;;;;;;;5053763;28;20182;-86
2023/07/27 09:01:15;;;;;;;4.10;3.80;;;;;;;;;;5036961;28;20275;-85
2023/07/27 09:03:43;;;;;;;4.07;3.67;;;;;;;;;;5053452;28;20271;-85
2023/07/27 09:06:12;;;;;;;4.60;4.20;;;;;;;;;;5053459;28;20203;-85
2023/07/27 09:08:38;;;;;;;4.63;4.10;;;;;;;;;;5053075;28;20237;-86
2023/07/27 09:11:05;;;;;;;4.23;3.83;;;;;;;;;;5053140;28;20277;-85
2023/07/27 09:13:31;;;;;;;4.30;4.00;;;;;;;;;;5053186;28;20224;-85
2023/07/27 09:15:58;;;;;;;4.17;3.77;;;;;;;;;;5053440;28;20180;-85
2023/07/27 09:18:24;;;;;;;4.43;3.93;;;;;;;;;;5036587;28;20274;-85
2023/07/27 09:20:50;;;;;;;4.40;4.00;;;;;;;;;;5053098;28;20180;-85
2023/07/27 09:23:22;;;;;;;5.23;4.20;;;;;;;;;;5053045;28;20184;-85
2023/07/27 09:25:55;;;;;;;4.27;3.90;;;;;;;;;;5052908;28;20230;-85
2023/07/27 09:28:25;;;;;;;4.70;4.30;;;;;;;;;;5053627;28;20200;-85
2023/07/27 09:30:51;;;;;;;6.03;4.37;;;;;;;;;;5036340;28;20223;-85
2023/07/27 09:33:21;;;;;;;5.50;4.50;;;;;;;;;;5036508;28;20180;-84
2023/07/27 09:35:49;;;;;;;4.90;4.40;;;;;;;;;;5052988;28;20183;-84
2023/07/27 09:38:16;;;;;;;5.57;4.90;;;;;;;;;;5052979;28;20176;-83
2023/07/27 09:40:42;;;;;;;5.20;4.70;;;;;;;;;;5052942;28;20179;-83
2023/07/27 09:43:08;;;;;;;5.20;4.70;;;;;;;;;;5052767;28;20180;-85
2023/07/27 09:45:38;;;;;;;4.97;4.57;;;;;;;;;;5052843;28;20279;-84
2023/07/27 09:48:04;;;;;;;6.50;4.37;;;;;;;;;;5052643;28;20180;-85
2023/07/27 09:50:30;;;;;;;5.23;4.73;;;;;;;;;;5052673;28;20203;-85
2023/07/27 09:52:57;;;;;;;5.17;4.70;;;;;;;;;;5052529;28;20176;-85
2023/07/27 09:55:25;;;;;;;6.90;5.37;;;;;;;;;;5036012;28;20176;-84
2023/07/27 09:57:52;;;;;;;5.57;5.07;;;;;;;;;;5052672;28;20168;-84
2023/07/27 10:00:20;;;;;;;5.90;5.40;;;;;;;;;;5052600;28;20183;-85
2023/07/27 10:02:46;;;;;;;6.17;5.57;;;;;;;;;;5056072;28;20179;-85
2023/07/27 10:05:12;;;;;;;7.40;6.13;;;;;;;;;;5056721;28;20187;-84
2023/07/27 10:07:41;;;;;;;7.23;6.53;;;;;;;;;;5056925;28;20211;-84
2023/07/27 10:10:28;;;;;;;7.30;6.57;;;;;;;;;;5056488;28;20207;-85
2023/07/27 10:12:56;;;;;;;8.47;7.47;;;;;;;;;;5056265;28;20238;-84
2023/07/27 10:15:27;;;;;;;7.70;7.10;;;;;;;;;;5040392;28;20184;-84
2023/07/27 10:17:58;;;;;;;9.87;7.70;;;;;;;;;;5056540;28;20171;-84
2023/07/27 10:20:27;;;;;;;8.90;6.97;;;;;;;;;;5056332;28;20187;-84
2023/07/27 10:23:09;;;;;;;7.07;6.47;;;;;;;;;;5056438;28;20221;-84
2023/07/27 10:25:55;;;;;;;7.40;6.80;;;;;;;;;;5056343;28;20184;-84
2023/07/27 10:28:30;;;;;;;6.53;6.03;;;;;;;;;;5055373;28;20203;-84
2023/07/27 10:31:25;;;;;;;7.60;6.83;;;;;;;;;;5056245;28;20268;-84
2023/07/27 10:33:51;;;;;;;7.33;6.63;;;;;;;;;;5054243;28;20233;-84
2023/07/27 10:36:19;;;;;;;7.70;7.00;;;;;;;;;;5055955;28;20180;-84
2023/07/27 10:38:53;;;;;;;7.87;7.07;;;;;;;;;;5040047;28;20179;-85
2023/07/27 10:41:23;;;;;;;8.30;7.53;;;;;;;;;;5056676;28;20274;-84
2023/07/27 10:44:08;;;;;;;8.53;7.73;;;;;;;;;;5056438;28;20194;-84
2023/07/27 10:46:37;;;;;;;8.13;7.33;;;;;;;;;;5055930;28;20191;-84
2023/07/27 10:49:15;;;;;;;8.50;7.90;;;;;;;;;;5056185;28;20180;-84
2023/07/27 10:51:44;;;;;;;8.50;7.80;;;;;;;;;;5055936;28;20268;-85
2023/07/27 10:54:10;;;;;;;9.33;8.53;;;;;;;;;;5055622;28;20266;-85
2023/07/27 10:56:36;;;;;;;9.87;8.97;;;;;;;;;;5055891;28;20176;-85
2023/07/27 10:59:06;;;;;;;8.83;8.13;;;;;;;;;;5055752;28;20187;-85
2023/07/27 11:01:33;;;;;;;8.77;8.03;;;;;;;;;;5055794;28;20310;-84
2023/07/27 11:03:59;;;;;;;7.60;7.00;;;;;;;;;;5055608;28;20180;-84
2023/07/27 11:06:28;;;;;;;8.07;7.37;;;;;;;;;;5055549;28;20176;-84
2023/07/27 11:08:56;;;;;;;8.23;7.47;;;;;;;;;;5055982;28;20238;-84
2023/07/27 11:11:26;;;;;;;8.13;7.43;;;;;;;;;;5055576;28;20211;-84
2023/07/27 11:13:52;;;;;;;7.33;6.63;;;;;;;;;;5055030;28;20227;-84
2023/07/27 11:16:19;;;;;;;7.63;7.03;;;;;;;;;;5055676;28;20180;-84
2023/07/27 11:18:48;;;;;;;9.33;7.47;;;;;;;;;;5038863;28;20180;-85
2023/07/27 11:21:14;;;;;;;8.53;7.73;;;;;;;;;;5055528;28;20184;-84
2023/07/27 11:23:41;;;;;;;7.93;7.17;;;;;;;;;;5055339;28;20184;-84
2023/07/27 11:26:07;;;;;;;7.77;7.07;;;;;;;;;;5055198;28;20183;-83
2023/07/27 11:28:34;;;;;;;7.90;7.20;;;;;;;;;;5055154;28;20200;-84
2023/07/27 11:31:00;;;;;;;7.37;6.77;;;;;;;;;;5055120;28;20278;-84
2023/07/27 11:33:32;;;;;;;8.00;7.20;;;;;;;;;;5038724;28;20210;-85
2023/07/27 11:35:59;;;;;;;7.87;7.17;;;;;;;;;;5055115;28;20176;-85
2023/07/27 11:38:25;;;;;;;7.07;6.47;;;;;;;;;;5054920;28;20191;-84
2023/07/27 11:40:53;;;;;;;8.30;6.40;;;;;;;;;;5055183;28;20180;-84
2023/07/27 11:43:19;;;;;;;6.23;5.73;;;;;;;;;;5054877;28;20180;-84
2023/07/27 11:45:45;;;;;;;6.73;6.10;;;;;;;;;;5038369;28;20192;-84
2023/07/27 11:48:11;;;;;;;6.90;6.20;;;;;;;;;;5054904;28;20180;-83
2023/07/27 11:50:38;;;;;;;6.63;5.90;;;;;;;;;;5038184;28;20219;-84
2023/07/27 11:53:08;;;;;;;6.60;6.10;;;;;;;;;;5054829;28;20171;-84
2023/07/27 11:55:37;;;;;;;6.67;6.07;;;;;;;;;;5054923;28;20260;-84
2023/07/27 11:58:10;;;;;;;6.47;5.87;;;;;;;;;;5054882;28;20207;-84
2023/07/27 12:00:39;;;;;;;6.17;5.57;;;;;;;;;;5038265;28;20194;-84
2023/07/27 12:03:05;;;;;;;6.57;5.90;;;;;;;;;;5054371;28;20258;-83
2023/07/27 12:05:34;;;;;;;6.10;5.60;;;;;;;;;;5054639;28;20183;-84
2023/07/27 12:08:00;;;;;;;6.87;6.23;;;;;;;;;;5054497;28;20230;-84
2023/07/27 12:10:26;;;;;;;6.27;5.73;;;;;;;;;;5038014;28;20212;-84
2023/07/27 12:13:03;;;;;;;7.07;6.47;;;;;;;;;;5037638;28;20292;-84
2023/07/27 12:15:31;;;;;;;7.00;6.33;;;;;;;;;;5054468;28;20176;-84
2023/07/27 12:17:58;;;;;;;6.50;6.00;;;;;;;;;;5054183;28;20191;-84
2023/07/27 12:20:28;;;;;;;6.80;6.20;;;;;;;;;;5054375;28;20187;-83
2023/07/27 12:22:54;;;;;;;6.93;6.33;;;;;;;;;;5053852;28;20180;-84
2023/07/27 12:25:20;;;;;;;7.67;6.17;;;;;;;;;;5053474;28;20187;-84
2023/07/27 12:27:46;;;;;;;6.73;6.13;;;;;;;;;;5053923;28;20204;-84
2023/07/27 12:30:12;;;;;;;7.07;6.47;;;;;;;;;;5053861;28;20298;-84
2023/07/27 12:32:38;;;;;;;6.47;5.90;;;;;;;;;;5037773;28;20196;-84
2023/07/27 12:35:05;;;;;;;7.07;6.27;;;;;;;;;;5053984;28;20179;-83
2023/07/27 12:37:31;;;;;;;6.00;5.43;;;;;;;;;;5053893;28;20289;-84
2023/07/27 12:40:00;;;;;;;6.27;5.83;;;;;;;;;;5054823;28;20180;-84
2023/07/27 12:42:26;;;;;;;6.20;5.80;;;;;;;;;;5053894;28;20248;-84
2023/07/27 12:44:52;;;;;;;6.40;5.80;;;;;;;;;;5053957;28;20187;-84
2023/07/27 12:47:18;;;;;;;6.13;5.43;;;;;;;;;;5053979;28;20228;-84
2023/07/27 12:49:47;;;;;;;7.03;5.10;;;;;;;;;;5037401;28;20249;-84
2023/07/27 12:52:13;;;;;;;5.50;4.97;;;;;;;;;;5053872;28;20169;-84
2023/07/27 12:54:39;;;;;;;5.90;5.40;;;;;;;;;;5036925;28;20179;-84
2023/07/27 12:57:05;;;;;;;6.00;5.40;;;;;;;;;;5053556;28;20240;-84
2023/07/27 12:59:31;;;;;;;7.07;6.30;;;;;;;;;;5036809;28;20280;-84
2023/07/27 13:01:57;;;;;;;6.23;5.83;;;;;;;;;;5053406;28;20184;-84
2023/07/27 13:04:23;;;;;;;6.47;5.87;;;;;;;;;;5053410;28;20314;-85
2023/07/27 13:06:49;;;;;;;6.73;6.10;;;;;;;;;;5053254;28;20180;-85
2023/07/27 13:09:16;;;;;;;6.27;5.77;;;;;;;;;;5053436;28;20187;-85
2023/07/27 13:11:42;;;;;;;5.90;5.40;;;;;;;;;;5053347;28;20215;-84
2023/07/27 13:14:09;;;;;;;5.93;5.50;;;;;;;;;;5020299;28;20232;-84
2023/07/27 13:16:35;;;;;;;5.43;5.03;;;;;;;;;;5053610;28;20202;-84
2023/07/27 13:19:01;;;;;;;5.20;4.77;;;;;;;;;;5036576;28;20184;-84
2023/07/27 13:21:27;;;;;;;5.17;4.80;;;;;;;;;;5053132;28;20183;-85
2023/07/27 13:23:53;;;;;;;4.70;4.40;;;;;;;;;;5053059;28;20211;-86
2023/07/27 13:26:19;;;;;;;4.60;4.30;;;;;;;;;;5053301;28;20187;-85
2023/07/27 13:28:47;;;;;;;4.77;4.37;;;;;;;;;;5052844;28;20227;-85
2023/07/27 13:31:18;;;;;;;4.80;4.30;;;;;;;;;;5053201;28;20236;-85
2023/07/27 13:33:44;;;;;;;4.83;4.43;;;;;;;;;;5052926;28;20172;-85
2023/07/27 13:36:10;;;;;;;5.03;4.40;;;;;;;;;;5036243;28;20279;-83
2023/07/27 13:38:37;;;;;;;5.10;4.67;;;;;;;;;;5052675;28;20180;-83
2023/07/27 13:41:04;;;;;;;4.73;4.30;;;;;;;;;;5036134;28;20195;-82
2023/07/27 13:43:32;;;;;;;4.63;4.27;;;;;;;;;;5052649;28;20176;-82
2023/07/27 13:45:59;;;;;;;5.47;4.97;;;;;;;;;;5052629;28;20176;-83
2023/07/27 13:48:25;;;;;;;5.07;4.67;;;;;;;;;;5036275;28;20194;-82
2023/07/27 13:50:54;;;;;;;5.30;4.80;;;;;;;;;;5035906;28;20227;-82
2023/07/27 13:53:21;;;;;;;4.90;4.40;;;;;;;;;;5052571;28;20183;-83
2023/07/27 13:55:49;;;;;;;4.83;4.30;;;;;;;;;;5052575;28;20176;-83
2023/07/27 13:58:15;;;;;;;3.90;3.60;;;;;;;;;;5036263;28;20180;-83
2023/07/27 14:00:41;;;;;;;3.93;3.63;;;;;;;;;;5036284;28;20196;-82
2023/07/27 14:03:07;;;;;;;3.80;3.50;;;;;;;;;;5052420;28;20183;-82
2023/07/27 14:05:38;;;;;;;3.33;3.03;;;;;;;;;;5036087;28;20184;-82
2023/07/27 14:08:07;;;;;;;3.67;3.37;;;;;;;;;;5052346;28;20184;-83
2023/07/27 14:10:33;;;;;;;3.03;2.83;;;;;;;;;;5035714;28;20211;-83
2023/07/27 14:13:01;;;;;;;2.60;2.40;;;;;;;;;;5052514;28;20293;-83
2023/07/27 14:15:27;;;;;;;2.77;2.03;;;;;;;;;;5052449;28;20177;-83
2023/07/27 14:17:53;;;;;;;2.60;2.40;;;;;;;;;;5035943;28;20190;-83
2023/07/27 14:20:20;;;;;;;2.23;2.13;;;;;;;;;;5052489;28;20240;-83
2023/07/27 14:22:46;;;;;;;2.50;2.40;;;;;;;;;;5052391;28;20184;-83
2023/07/27 14:25:12;;;;;;;3.10;2.60;;;;;;;;;;5052348;28;20279;-83
2023/07/27 14:27:38;;;;;;;2.60;2.40;;;;;;;;;;5052350;28;20279;-83
2023/07/27 14:30:06;;;;;;;2.57;2.37;;;;;;;;;;5035706;28;20214;-83
2023/07/27 14:32:33;;;;;;;2.97;2.47;;;;;;;;;;5036114;28;20180;-83
2023/07/27 14:34:59;;;;;;;2.90;2.70;;;;;;;;;;5052323;28;20234;-83